Time,TemperatureF,DewpointF,PressureIn,WindDirection,WindDirectionDegrees,WindSpeedMPH,WindSpeedGustMPH,Humidity,HourlyPrecipIn,Conditions,Clouds,dailyrainin,SolarRadiationWatts/m^2,SoftwareType,DateUTC
2013-07-06 00:02:00,79.0,71.0,-100.00,SSW,201,6.0,11.0,77,0.00,,,0.00,0.000000,,2013-07-06 04:02:00,
2013-07-06 00:43:00,78.0,71.0,-100.00,SSW,200,5.0,10.0,79,0.00,,,0.00,0.000000,,2013-07-06 04:43:00,
2013-07-06 00:53:00,78.0,71.0,-100.00,SSW,200,5.0,10.0,79,0.00,,,0.00,0.000000,,2013-07-06 04:53:00,
2013-07-06 01:02:00,78.0,71.0,-100.00,SSW,200,5.0,10.0,79,0.00,,,0.00,0.000000,,2013-07-06 05:02:00,
2013-07-06 01:34:00,78.0,72.0,-100.00,SSW,211,4.0,7.0,81,0.00,,,0.00,0.000000,,2013-07-06 05:34:00,
2013-07-06 01:43:00,78.0,72.0,-100.00,SSW,211,4.0,7.0,81,0.00,,,0.00,0.000000,,2013-07-06 05:43:00,
2013-07-06 01:53:00,78.0,72.0,-100.00,SSW,211,4.0,7.0,81,0.00,,,0.00,0.000000,,2013-07-06 05:53:00,
2013-07-06 02:02:00,78.0,72.0,-100.00,SSW,211,4.0,7.0,81,0.00,,,0.00,0.000000,,2013-07-06 06:02:00,
2013-07-06 02:34:00,78.0,72.0,-100.00,SSW,211,3.0,8.0,82,0.00,,,0.00,0.000000,,2013-07-06 06:34:00,
2013-07-06 02:43:00,78.0,72.0,-100.00,SSW,211,3.0,8.0,82,0.00,,,0.00,0.000000,,2013-07-06 06:43:00,
2013-07-06 02:53:00,78.0,72.0,-100.00,SSW,211,3.0,8.0,82,0.00,,,0.00,0.000000,,2013-07-06 06:53:00,
2013-07-06 03:02:00,78.0,72.0,-100.00,SSW,211,3.0,8.0,82,0.00,,,0.00,0.000000,,2013-07-06 07:02:00,
2013-07-06 03:33:00,77.0,71.0,-100.00,SSW,198,3.0,7.0,82,0.00,,,0.00,0.000000,,2013-07-06 07:33:00,
2013-07-06 03:44:00,77.0,71.0,-100.00,SSW,198,3.0,7.0,82,0.00,,,0.00,0.000000,,2013-07-06 07:44:00,
2013-07-06 03:52:00,77.0,71.0,-100.00,SSW,198,3.0,7.0,82,0.00,,,0.00,0.000000,,2013-07-06 07:52:00,
2013-07-06 04:02:00,77.0,71.0,-100.00,SSW,198,3.0,7.0,82,0.00,,,0.00,0.000000,,2013-07-06 08:02:00,
2013-07-06 04:34:00,78.0,72.0,-100.00,South,180,3.0,5.0,83,0.00,,,0.00,0.000000,,2013-07-06 08:34:00,
2013-07-06 04:43:00,78.0,72.0,-100.00,South,180,3.0,5.0,83,0.00,,,0.00,0.000000,,2013-07-06 08:43:00,
2013-07-06 04:54:00,78.0,72.0,-100.00,South,180,3.0,5.0,83,0.00,,,0.00,0.000000,,2013-07-06 08:54:00,
2013-07-06 05:02:00,78.0,72.0,-100.00,South,180,3.0,5.0,83,0.00,,,0.00,0.000000,,2013-07-06 09:02:00,
2013-07-06 05:34:00,77.0,72.0,-100.00,South,180,4.0,7.0,84,0.00,,,0.00,0.000000,,2013-07-06 09:34:00,
2013-07-06 05:43:00,77.0,72.0,-100.00,South,180,4.0,7.0,84,0.00,,,0.00,0.000000,,2013-07-06 09:43:00,
2013-07-06 05:53:00,77.0,72.0,-100.00,South,180,4.0,7.0,84,0.00,,,0.00,0.000000,,2013-07-06 09:53:00,
2013-07-06 06:02:00,77.0,72.0,-100.00,South,180,4.0,7.0,84,0.00,,,0.00,0.000000,,2013-07-06 10:02:00,
2013-07-06 06:33:00,76.0,71.0,-100.00,South,188,3.0,5.0,85,0.00,,,0.00,1.000000,,2013-07-06 10:33:00,
2013-07-06 06:43:00,76.0,71.0,-100.00,South,188,3.0,5.0,85,0.00,,,0.00,1.000000,,2013-07-06 10:43:00,
2013-07-06 06:53:00,76.0,71.0,-100.00,South,188,3.0,5.0,85,0.00,,,0.00,1.000000,,2013-07-06 10:53:00,
2013-07-06 07:01:00,76.0,71.0,-100.00,South,188,3.0,5.0,85,0.00,,,0.00,1.000000,,2013-07-06 11:01:00,
2013-07-06 07:33:00,78.0,72.0,-100.00,South,184,4.0,7.0,81,0.00,,,0.00,59.000000,,2013-07-06 11:33:00,
2013-07-06 07:43:00,78.0,72.0,-100.00,South,184,4.0,7.0,81,0.00,,,0.00,59.000000,,2013-07-06 11:43:00,
2013-07-06 07:53:00,78.0,72.0,-100.00,South,184,4.0,7.0,81,0.00,,,0.00,59.000000,,2013-07-06 11:53:00,
2013-07-06 08:01:00,78.0,72.0,-100.00,South,184,4.0,7.0,81,0.00,,,0.00,59.000000,,2013-07-06 12:01:00,
2013-07-06 08:33:00,80.0,71.0,-100.00,South,181,4.0,10.0,74,0.00,,,0.00,220.000000,,2013-07-06 12:33:00,
2013-07-06 08:43:00,80.0,71.0,-100.00,South,181,4.0,10.0,74,0.00,,,0.00,220.000000,,2013-07-06 12:43:00,
2013-07-06 08:52:00,80.0,71.0,-100.00,South,181,4.0,10.0,74,0.00,,,0.00,220.000000,,2013-07-06 12:52:00,
2013-07-06 09:01:00,80.0,71.0,-100.00,South,181,4.0,10.0,74,0.00,,,0.00,220.000000,,2013-07-06 13:01:00,
2013-07-06 09:43:00,82.0,72.0,-100.00,SSW,199,7.0,11.0,71,0.00,,,0.00,427.000000,,2013-07-06 13:43:00,
2013-07-06 09:52:00,82.0,72.0,-100.00,SSW,199,7.0,11.0,71,0.00,,,0.00,427.000000,,2013-07-06 13:52:00,
2013-07-06 10:02:00,82.0,72.0,-100.00,SSW,199,7.0,11.0,71,0.00,,,0.00,427.000000,,2013-07-06 14:02:00,
2013-07-06 10:34:00,83.0,71.0,-100.00,SSE,168,6.0,10.0,68,0.00,,,-99.99,732.000000,,2013-07-06 14:34:00,
2013-07-06 10:42:00,83.0,71.0,-100.00,SSE,168,6.0,10.0,68,0.00,,,-99.99,732.000000,,2013-07-06 14:42:00,
2013-07-06 10:53:00,83.0,71.0,-100.00,SSE,168,6.0,10.0,68,0.00,,,-99.99,732.000000,,2013-07-06 14:53:00,
2013-07-06 11:02:00,83.0,71.0,-100.00,SSE,168,6.0,10.0,68,0.00,,,-99.99,732.000000,,2013-07-06 15:02:00,
2013-07-06 11:05:00,82.0,71.0,-100.00,SSW,211,8.0,13.0,69,0.00,,,0.00,805.000000,,2013-07-06 15:05:00,
2013-07-06 11:34:00,82.0,71.0,-100.00,SSW,211,8.0,13.0,69,0.00,,,0.00,805.000000,,2013-07-06 15:34:00,
2013-07-06 11:43:00,82.0,71.0,-100.00,SSW,211,8.0,13.0,69,0.00,,,0.00,805.000000,,2013-07-06 15:43:00,
2013-07-06 11:53:00,82.0,71.0,-100.00,SSW,211,8.0,13.0,69,0.00,,,0.00,805.000000,,2013-07-06 15:53:00,
2013-07-06 12:05:00,83.0,70.0,-100.00,South,182,8.0,13.0,66,0.00,,,0.00,949.000000,,2013-07-06 16:05:00,
2013-07-06 12:50:00,83.0,70.0,-100.00,South,182,8.0,13.0,66,0.00,,,0.00,949.000000,,2013-07-06 16:50:00,
2013-07-06 13:45:00,84.0,72.0,-100.00,South,169,8.0,14.0,67,0.00,,,0.00,1067.000000,,2013-07-06 17:45:00,
2013-07-06 14:00:00,84.0,72.0,-100.00,South,169,8.0,14.0,67,0.00,,,0.00,1067.000000,,2013-07-06 18:00:00,
2013-07-06 14:05:00,84.0,71.0,-100.00,SSE,152,9.0,15.0,65,0.00,,,0.00,1094.000000,,2013-07-06 18:05:00,
2013-07-06 14:50:00,84.0,71.0,-100.00,SSE,152,9.0,15.0,65,0.00,,,0.00,1094.000000,,2013-07-06 18:50:00,
2013-07-06 15:02:00,84.0,71.0,-100.00,SSE,152,9.0,15.0,65,0.00,,,0.00,1094.000000,,2013-07-06 19:02:00,
2013-07-06 15:05:00,84.0,71.0,-100.00,South,175,7.0,15.0,65,0.00,,,0.00,1046.000000,,2013-07-06 19:05:00,
2013-07-06 15:50:00,84.0,71.0,-100.00,South,175,7.0,15.0,65,0.00,,,0.00,1046.000000,,2013-07-06 19:50:00,
2013-07-06 16:00:00,84.0,71.0,-100.00,South,175,7.0,15.0,65,0.00,,,0.00,1046.000000,,2013-07-06 20:00:00,
2013-07-06 16:05:00,84.0,70.0,-100.00,South,175,9.0,15.0,64,0.00,,,0.00,944.000000,,2013-07-06 20:05:00,
2013-07-06 17:05:00,83.0,71.0,-100.00,SSW,201,7.0,15.0,68,0.00,,,0.00,732.000000,,2013-07-06 21:05:00,
2013-07-06 17:50:00,83.0,71.0,-100.00,SSW,201,7.0,15.0,68,0.00,,,0.00,732.000000,,2013-07-06 21:50:00,
2013-07-06 18:00:00,83.0,71.0,-100.00,SSW,201,7.0,15.0,68,0.00,,,0.00,732.000000,,2013-07-06 22:00:00,
2013-07-06 18:05:00,83.0,71.0,-100.00,South,189,8.0,15.0,68,0.00,,,0.00,558.000000,,2013-07-06 22:05:00,
2013-07-06 18:50:00,83.0,71.0,-100.00,South,189,8.0,15.0,68,0.00,,,0.00,558.000000,,2013-07-06 22:50:00,
2013-07-06 19:05:00,82.0,72.0,-100.00,South,187,7.0,16.0,72,0.00,,,0.00,341.000000,,2013-07-06 23:05:00,
2013-07-06 19:52:00,82.0,72.0,-100.00,South,187,7.0,16.0,72,0.00,,,0.00,341.000000,,2013-07-06 23:52:00,
2013-07-06 20:05:00,80.0,71.0,-100.00,SSW,196,5.0,12.0,75,0.00,,,0.00,141.000000,,2013-07-07 00:05:00,
2013-07-06 21:00:00,80.0,71.0,-100.00,SSW,196,5.0,12.0,75,0.00,,,0.00,141.000000,,2013-07-07 01:00:00,
2013-07-06 21:05:00,79.0,71.0,-100.00,SSW,199,7.0,12.0,76,0.00,,,0.00,5.000000,,2013-07-07 01:05:00,
2013-07-06 21:50:00,79.0,71.0,-100.00,SSW,199,7.0,12.0,76,0.00,,,0.00,5.000000,,2013-07-07 01:50:00,
2013-07-06 22:01:00,79.0,71.0,-100.00,SSW,199,7.0,12.0,76,0.00,,,0.00,5.000000,,2013-07-07 02:01:00,
2013-07-06 22:44:00,79.0,71.0,-100.00,SSW,210,4.0,10.0,76,0.00,,,0.00,0.000000,,2013-07-07 02:44:00,
2013-07-06 23:02:00,79.0,71.0,-100.00,SSW,210,4.0,10.0,76,0.00,,,0.00,0.000000,,2013-07-07 03:02:00,